sensor_id;sensor_type;location;lat;lon;timestamp;temperature;humidity
35613;DHT22;22054;51.646;7.078;2022-11-30T00:01:29;8.50;99.90
35613;DHT22;22054;51.646;7.078;2022-11-30T00:03:55;8.50;99.90
35613;DHT22;22054;51.646;7.078;2022-11-30T00:06:25;8.40;99.90
35613;DHT22;22054;51.646;7.078;2022-11-30T00:09:00;8.60;99.90
35613;DHT22;22054;51.646;7.078;2022-11-30T00:11:27;8.50;99.90
35613;DHT22;22054;51.646;7.078;2022-11-30T00:13:54;8.50;99.90
35613;DHT22;22054;51.646;7.078;2022-11-30T00:16:20;8.50;99.90
35613;DHT22;22054;51.646;7.078;2022-11-30T00:18:48;8.50;99.90
35613;DHT22;22054;51.646;7.078;2022-11-30T00:21:15;8.60;99.90
35613;DHT22;22054;51.646;7.078;2022-11-30T00:23:42;8.60;99.90
35613;DHT22;22054;51.646;7.078;2022-11-30T00:26:12;8.60;99.90
35613;DHT22;22054;51.646;7.078;2022-11-30T00:28:39;8.70;99.90
35613;DHT22;22054;51.646;7.078;2022-11-30T00:31:10;8.60;99.90
35613;DHT22;22054;51.646;7.078;2022-11-30T00:33:38;8.60;99.90
35613;DHT22;22054;51.646;7.078;2022-11-30T00:36:07;8.60;99.90
35613;DHT22;22054;51.646;7.078;2022-11-30T00:38:35;8.40;99.90
35613;DHT22;22054;51.646;7.078;2022-11-30T00:41:01;8.40;99.90
35613;DHT22;22054;51.646;7.078;2022-11-30T00:43:37;8.30;99.90
35613;DHT22;22054;51.646;7.078;2022-11-30T00:46:05;8.30;99.90
35613;DHT22;22054;51.646;7.078;2022-11-30T00:48:33;8.40;99.90
35613;DHT22;22054;51.646;7.078;2022-11-30T00:51:02;8.30;99.90
35613;DHT22;22054;51.646;7.078;2022-11-30T00:53:28;8.20;99.90
35613;DHT22;22054;51.646;7.078;2022-11-30T00:55:54;8.10;99.90
35613;DHT22;22054;51.646;7.078;2022-11-30T00:58:20;8.10;99.90
35613;DHT22;22054;51.646;7.078;2022-11-30T01:00:46;8.10;99.90
35613;DHT22;22054;51.646;7.078;2022-11-30T01:03:12;8.20;99.90
35613;DHT22;22054;51.646;7.078;2022-11-30T01:05:38;8.10;99.90
35613;DHT22;22054;51.646;7.078;2022-11-30T01:08:06;8.00;99.90
35613;DHT22;22054;51.646;7.078;2022-11-30T01:10:34;8.00;99.90
35613;DHT22;22054;51.646;7.078;2022-11-30T01:13:00;8.00;99.90
35613;DHT22;22054;51.646;7.078;2022-11-30T01:15:26;8.00;99.90
35613;DHT22;22054;51.646;7.078;2022-11-30T01:17:52;8.00;99.90
35613;DHT22;22054;51.646;7.078;2022-11-30T01:20:18;8.00;99.90
35613;DHT22;22054;51.646;7.078;2022-11-30T01:22:44;8.00;99.90
35613;DHT22;22054;51.646;7.078;2022-11-30T01:25:10;8.00;99.90
35613;DHT22;22054;51.646;7.078;2022-11-30T01:27:36;7.90;99.90
35613;DHT22;22054;51.646;7.078;2022-11-30T01:30:02;7.90;99.90
35613;DHT22;22054;51.646;7.078;2022-11-30T01:32:28;7.80;99.90
35613;DHT22;22054;51.646;7.078;2022-11-30T01:34:53;7.70;99.90
35613;DHT22;22054;51.646;7.078;2022-11-30T01:37:20;7.70;99.90
35613;DHT22;22054;51.646;7.078;2022-11-30T01:39:45;7.70;99.90
35613;DHT22;22054;51.646;7.078;2022-11-30T01:42:17;7.60;99.90
35613;DHT22;22054;51.646;7.078;2022-11-30T01:47:20;7.60;99.90
35613;DHT22;22054;51.646;7.078;2022-11-30T01:49:56;7.60;99.90
35613;DHT22;22054;51.646;7.078;2022-11-30T01:52:34;7.60;99.90
35613;DHT22;22054;51.646;7.078;2022-11-30T01:55:31;7.60;99.90
35613;DHT22;22054;51.646;7.078;2022-11-30T01:58:09;7.60;99.90
35613;DHT22;22054;51.646;7.078;2022-11-30T02:00:36;7.60;99.90
35613;DHT22;22054;51.646;7.078;2022-11-30T02:03:21;7.60;99.90
35613;DHT22;22054;51.646;7.078;2022-11-30T02:06:09;7.60;99.90
35613;DHT22;22054;51.646;7.078;2022-11-30T02:08:35;7.60;99.90
35613;DHT22;22054;51.646;7.078;2022-11-30T02:11:03;7.50;99.90
35613;DHT22;22054;51.646;7.078;2022-11-30T02:19:40;7.50;99.90
35613;DHT22;22054;51.646;7.078;2022-11-30T02:25:06;7.50;99.90
35613;DHT22;22054;51.646;7.078;2022-11-30T02:27:58;7.60;99.90
35613;DHT22;22054;51.646;7.078;2022-11-30T02:30:41;7.50;99.90
35613;DHT22;22054;51.646;7.078;2022-11-30T02:33:14;7.60;99.90
35613;DHT22;22054;51.646;7.078;2022-11-30T02:35:44;7.50;99.90
35613;DHT22;22054;51.646;7.078;2022-11-30T02:38:13;7.50;99.90
35613;DHT22;22054;51.646;7.078;2022-11-30T02:40:38;7.60;99.90
35613;DHT22;22054;51.646;7.078;2022-11-30T02:43:05;7.50;99.90
35613;DHT22;22054;51.646;7.078;2022-11-30T02:45:45;7.50;99.90
35613;DHT22;22054;51.646;7.078;2022-11-30T02:48:18;7.50;99.90
35613;DHT22;22054;51.646;7.078;2022-11-30T02:50:55;7.50;99.90
35613;DHT22;22054;51.646;7.078;2022-11-30T02:53:23;7.60;99.90
35613;DHT22;22054;51.646;7.078;2022-11-30T02:55:49;7.50;99.90
35613;DHT22;22054;51.646;7.078;2022-11-30T02:58:16;7.50;99.90
35613;DHT22;22054;51.646;7.078;2022-11-30T03:00:42;7.50;99.90
35613;DHT22;22054;51.646;7.078;2022-11-30T03:03:08;7.50;99.90
35613;DHT22;22054;51.646;7.078;2022-11-30T03:05:33;7.50;99.90
35613;DHT22;22054;51.646;7.078;2022-11-30T03:07:59;7.50;99.90
35613;DHT22;22054;51.646;7.078;2022-11-30T03:10:25;7.50;99.90
35613;DHT22;22054;51.646;7.078;2022-11-30T03:12:50;7.50;99.90
35613;DHT22;22054;51.646;7.078;2022-11-30T03:15:16;7.40;99.90
35613;DHT22;22054;51.646;7.078;2022-11-30T03:17:42;7.40;99.90
35613;DHT22;22054;51.646;7.078;2022-11-30T03:20:08;7.40;99.90
35613;DHT22;22054;51.646;7.078;2022-11-30T03:22:34;7.50;99.90
35613;DHT22;22054;51.646;7.078;2022-11-30T03:25:00;7.50;99.90
35613;DHT22;22054;51.646;7.078;2022-11-30T03:27:26;7.50;99.90
35613;DHT22;22054;51.646;7.078;2022-11-30T03:29:51;7.40;99.90
35613;DHT22;22054;51.646;7.078;2022-11-30T03:32:17;7.60;99.90
35613;DHT22;22054;51.646;7.078;2022-11-30T03:34:43;7.40;99.90
35613;DHT22;22054;51.646;7.078;2022-11-30T03:37:09;7.40;99.90
35613;DHT22;22054;51.646;7.078;2022-11-30T03:39:34;7.30;99.90
35613;DHT22;22054;51.646;7.078;2022-11-30T03:42:00;7.30;99.90
35613;DHT22;22054;51.646;7.078;2022-11-30T03:44:26;7.20;99.90
35613;DHT22;22054;51.646;7.078;2022-11-30T03:46:52;7.20;99.90
35613;DHT22;22054;51.646;7.078;2022-11-30T03:49:17;7.30;99.90
35613;DHT22;22054;51.646;7.078;2022-11-30T03:51:43;7.20;99.90
35613;DHT22;22054;51.646;7.078;2022-11-30T03:54:08;7.30;99.90
35613;DHT22;22054;51.646;7.078;2022-11-30T03:56:34;7.30;99.90
35613;DHT22;22054;51.646;7.078;2022-11-30T03:59:00;7.20;99.90
35613;DHT22;22054;51.646;7.078;2022-11-30T04:01:26;7.30;99.90
35613;DHT22;22054;51.646;7.078;2022-11-30T04:03:52;7.30;99.90
35613;DHT22;22054;51.646;7.078;2022-11-30T04:06:19;7.30;99.90
35613;DHT22;22054;51.646;7.078;2022-11-30T04:08:45;7.30;99.90
35613;DHT22;22054;51.646;7.078;2022-11-30T04:11:12;7.30;99.90
35613;DHT22;22054;51.646;7.078;2022-11-30T04:13:39;7.30;99.90
35613;DHT22;22054;51.646;7.078;2022-11-30T04:16:06;7.30;99.90
35613;DHT22;22054;51.646;7.078;2022-11-30T04:18:33;7.40;99.90
35613;DHT22;22054;51.646;7.078;2022-11-30T04:21:00;7.30;99.90
35613;DHT22;22054;51.646;7.078;2022-11-30T04:23:31;7.30;99.90
35613;DHT22;22054;51.646;7.078;2022-11-30T04:25:58;7.30;99.90
35613;DHT22;22054;51.646;7.078;2022-11-30T04:28:24;7.30;99.90
35613;DHT22;22054;51.646;7.078;2022-11-30T04:30:50;7.40;99.90
35613;DHT22;22054;51.646;7.078;2022-11-30T04:33:17;7.30;99.90
35613;DHT22;22054;51.646;7.078;2022-11-30T04:35:47;7.30;99.90
35613;DHT22;22054;51.646;7.078;2022-11-30T04:38:15;7.30;99.90
35613;DHT22;22054;51.646;7.078;2022-11-30T04:40:41;7.20;99.90
35613;DHT22;22054;51.646;7.078;2022-11-30T04:43:08;7.30;99.90
35613;DHT22;22054;51.646;7.078;2022-11-30T04:45:34;7.30;99.90
35613;DHT22;22054;51.646;7.078;2022-11-30T04:48:00;7.30;99.90
35613;DHT22;22054;51.646;7.078;2022-11-30T04:50:27;7.30;99.90
35613;DHT22;22054;51.646;7.078;2022-11-30T04:52:53;7.30;99.90
35613;DHT22;22054;51.646;7.078;2022-11-30T04:55:18;7.30;99.90
35613;DHT22;22054;51.646;7.078;2022-11-30T04:57:45;7.30;99.90
35613;DHT22;22054;51.646;7.078;2022-11-30T05:00:12;7.30;99.90
35613;DHT22;22054;51.646;7.078;2022-11-30T05:02:39;7.30;99.90
35613;DHT22;22054;51.646;7.078;2022-11-30T05:05:05;7.30;99.90
35613;DHT22;22054;51.646;7.078;2022-11-30T05:07:31;7.30;99.90
35613;DHT22;22054;51.646;7.078;2022-11-30T05:09:57;7.30;99.90
35613;DHT22;22054;51.646;7.078;2022-11-30T05:12:23;7.30;99.90
35613;DHT22;22054;51.646;7.078;2022-11-30T05:14:48;7.30;99.90
35613;DHT22;22054;51.646;7.078;2022-11-30T05:17:14;7.30;99.90
35613;DHT22;22054;51.646;7.078;2022-11-30T05:19:40;7.30;99.90
35613;DHT22;22054;51.646;7.078;2022-11-30T05:22:06;7.30;99.90
35613;DHT22;22054;51.646;7.078;2022-11-30T05:24:31;7.30;99.90
35613;DHT22;22054;51.646;7.078;2022-11-30T05:26:57;7.30;99.90
35613;DHT22;22054;51.646;7.078;2022-11-30T05:29:23;7.30;99.90
35613;DHT22;22054;51.646;7.078;2022-11-30T05:31:49;7.30;99.90
35613;DHT22;22054;51.646;7.078;2022-11-30T05:34:15;7.30;99.90
35613;DHT22;22054;51.646;7.078;2022-11-30T05:36:41;7.30;99.90
35613;DHT22;22054;51.646;7.078;2022-11-30T05:39:06;7.30;99.90
35613;DHT22;22054;51.646;7.078;2022-11-30T05:41:32;7.30;99.90
35613;DHT22;22054;51.646;7.078;2022-11-30T05:43:58;7.30;99.90
35613;DHT22;22054;51.646;7.078;2022-11-30T05:46:23;7.30;99.90
35613;DHT22;22054;51.646;7.078;2022-11-30T05:48:49;7.30;99.90
35613;DHT22;22054;51.646;7.078;2022-11-30T05:51:17;7.40;99.90
35613;DHT22;22054;51.646;7.078;2022-11-30T05:53:44;7.40;99.90
35613;DHT22;22054;51.646;7.078;2022-11-30T05:56:17;7.40;99.90
35613;DHT22;22054;51.646;7.078;2022-11-30T05:58:45;7.40;99.90
35613;DHT22;22054;51.646;7.078;2022-11-30T06:01:22;7.40;99.90
35613;DHT22;22054;51.646;7.078;2022-11-30T06:03:50;7.40;99.90
35613;DHT22;22054;51.646;7.078;2022-11-30T06:06:16;7.50;99.90
35613;DHT22;22054;51.646;7.078;2022-11-30T06:08:43;7.50;99.90
35613;DHT22;22054;51.646;7.078;2022-11-30T06:11:09;7.40;99.90
35613;DHT22;22054;51.646;7.078;2022-11-30T06:13:45;7.40;99.90
35613;DHT22;22054;51.646;7.078;2022-11-30T06:16:11;7.50;99.90
35613;DHT22;22054;51.646;7.078;2022-11-30T06:18:46;7.40;99.90
35613;DHT22;22054;51.646;7.078;2022-11-30T06:21:20;7.40;99.90
35613;DHT22;22054;51.646;7.078;2022-11-30T06:24:10;7.40;99.90
35613;DHT22;22054;51.646;7.078;2022-11-30T06:33:56;7.40;99.90
35613;DHT22;22054;51.646;7.078;2022-11-30T06:36:23;7.40;99.90
35613;DHT22;22054;51.646;7.078;2022-11-30T06:38:50;7.40;99.90
35613;DHT22;22054;51.646;7.078;2022-11-30T06:41:22;7.40;99.90
35613;DHT22;22054;51.646;7.078;2022-11-30T06:43:48;7.40;99.90
35613;DHT22;22054;51.646;7.078;2022-11-30T06:46:14;7.30;99.90
35613;DHT22;22054;51.646;7.078;2022-11-30T06:48:42;7.40;99.90
35613;DHT22;22054;51.646;7.078;2022-11-30T06:51:16;7.40;99.90
35613;DHT22;22054;51.646;7.078;2022-11-30T06:53:45;7.30;99.90
35613;DHT22;22054;51.646;7.078;2022-11-30T06:56:13;7.30;99.90
35613;DHT22;22054;51.646;7.078;2022-11-30T07:11:10;7.30;99.90
35613;DHT22;22054;51.646;7.078;2022-11-30T07:13:37;7.30;99.90
35613;DHT22;22054;51.646;7.078;2022-11-30T07:16:07;7.30;99.90
35613;DHT22;22054;51.646;7.078;2022-11-30T07:18:35;7.40;99.90
35613;DHT22;22054;51.646;7.078;2022-11-30T07:21:02;7.40;99.90
35613;DHT22;22054;51.646;7.078;2022-11-30T07:23:29;7.30;99.90
35613;DHT22;22054;51.646;7.078;2022-11-30T07:26:14;7.40;99.90
35613;DHT22;22054;51.646;7.078;2022-11-30T07:28:44;7.40;99.90
35613;DHT22;22054;51.646;7.078;2022-11-30T07:31:14;7.40;99.90
35613;DHT22;22054;51.646;7.078;2022-11-30T07:33:48;7.40;99.90
35613;DHT22;22054;51.646;7.078;2022-11-30T07:36:15;7.50;99.90
35613;DHT22;22054;51.646;7.078;2022-11-30T07:38:41;7.40;99.90
35613;DHT22;22054;51.646;7.078;2022-11-30T07:41:08;7.40;99.90
35613;DHT22;22054;51.646;7.078;2022-11-30T07:43:34;7.40;99.90
35613;DHT22;22054;51.646;7.078;2022-11-30T07:46:01;7.50;99.90
35613;DHT22;22054;51.646;7.078;2022-11-30T07:48:28;7.40;99.90
35613;DHT22;22054;51.646;7.078;2022-11-30T07:51:01;7.50;99.90
35613;DHT22;22054;51.646;7.078;2022-11-30T07:53:28;7.40;99.90
35613;DHT22;22054;51.646;7.078;2022-11-30T07:56:07;7.30;99.90
35613;DHT22;22054;51.646;7.078;2022-11-30T07:58:34;7.50;99.90
35613;DHT22;22054;51.646;7.078;2022-11-30T08:01:02;7.40;99.90
35613;DHT22;22054;51.646;7.078;2022-11-30T08:03:29;7.40;99.90
35613;DHT22;22054;51.646;7.078;2022-11-30T08:06:00;7.50;99.90
35613;DHT22;22054;51.646;7.078;2022-11-30T08:08:31;7.40;99.90
35613;DHT22;22054;51.646;7.078;2022-11-30T08:11:02;7.50;99.90
35613;DHT22;22054;51.646;7.078;2022-11-30T08:13:28;7.70;99.90
35613;DHT22;22054;51.646;7.078;2022-11-30T08:15:54;7.50;99.90
35613;DHT22;22054;51.646;7.078;2022-11-30T08:18:20;7.60;99.90
35613;DHT22;22054;51.646;7.078;2022-11-30T08:20:46;7.60;99.90
35613;DHT22;22054;51.646;7.078;2022-11-30T08:23:12;7.50;99.90
35613;DHT22;22054;51.646;7.078;2022-11-30T08:25:38;7.50;99.90
35613;DHT22;22054;51.646;7.078;2022-11-30T08:28:04;7.50;99.90
35613;DHT22;22054;51.646;7.078;2022-11-30T08:30:30;7.50;99.90
35613;DHT22;22054;51.646;7.078;2022-11-30T08:32:56;7.60;99.90
35613;DHT22;22054;51.646;7.078;2022-11-30T08:35:22;7.60;99.90
35613;DHT22;22054;51.646;7.078;2022-11-30T08:37:47;7.60;99.90
35613;DHT22;22054;51.646;7.078;2022-11-30T08:40:13;7.60;99.90
35613;DHT22;22054;51.646;7.078;2022-11-30T08:42:39;7.60;99.90
35613;DHT22;22054;51.646;7.078;2022-11-30T08:45:05;7.60;99.90
35613;DHT22;22054;51.646;7.078;2022-11-30T08:47:31;7.60;99.90
35613;DHT22;22054;51.646;7.078;2022-11-30T08:49:57;7.70;99.90
35613;DHT22;22054;51.646;7.078;2022-11-30T08:52:23;7.70;99.90
35613;DHT22;22054;51.646;7.078;2022-11-30T08:54:49;7.60;99.90
35613;DHT22;22054;51.646;7.078;2022-11-30T08:57:17;7.60;99.90
35613;DHT22;22054;51.646;7.078;2022-11-30T08:59:47;7.80;99.90
35613;DHT22;22054;51.646;7.078;2022-11-30T09:02:14;7.70;99.90
35613;DHT22;22054;51.646;7.078;2022-11-30T09:04:45;7.70;99.90
35613;DHT22;22054;51.646;7.078;2022-11-30T09:07:16;7.70;99.90
35613;DHT22;22054;51.646;7.078;2022-11-30T09:09:42;7.80;99.90
35613;DHT22;22054;51.646;7.078;2022-11-30T09:12:07;7.80;99.90
35613;DHT22;22054;51.646;7.078;2022-11-30T09:14:38;7.80;99.90
35613;DHT22;22054;51.646;7.078;2022-11-30T09:17:04;7.80;99.90
35613;DHT22;22054;51.646;7.078;2022-11-30T09:19:32;7.70;99.90
35613;DHT22;22054;51.646;7.078;2022-11-30T09:21:58;8.00;99.90
35613;DHT22;22054;51.646;7.078;2022-11-30T09:24:24;7.80;99.90
35613;DHT22;22054;51.646;7.078;2022-11-30T09:26:50;7.80;99.90
35613;DHT22;22054;51.646;7.078;2022-11-30T09:29:19;7.80;99.90
35613;DHT22;22054;51.646;7.078;2022-11-30T09:31:45;7.80;99.90
35613;DHT22;22054;51.646;7.078;2022-11-30T09:34:11;7.70;99.90
35613;DHT22;22054;51.646;7.078;2022-11-30T09:36:37;7.70;99.90
35613;DHT22;22054;51.646;7.078;2022-11-30T09:39:03;7.70;99.90
35613;DHT22;22054;51.646;7.078;2022-11-30T09:44:53;7.60;99.90
35613;DHT22;22054;51.646;7.078;2022-11-30T09:50:28;7.80;99.90
35613;DHT22;22054;51.646;7.078;2022-11-30T09:53:01;7.80;99.90
35613;DHT22;22054;51.646;7.078;2022-11-30T09:55:38;7.80;99.90
35613;DHT22;22054;51.646;7.078;2022-11-30T09:58:09;7.80;99.90
35613;DHT22;22054;51.646;7.078;2022-11-30T10:00:40;7.90;99.90
35613;DHT22;22054;51.646;7.078;2022-11-30T10:03:06;7.90;99.90
35613;DHT22;22054;51.646;7.078;2022-11-30T10:05:59;7.90;99.90
35613;DHT22;22054;51.646;7.078;2022-11-30T10:08:41;7.90;99.90
35613;DHT22;22054;51.646;7.078;2022-11-30T10:11:48;8.00;99.90
35613;DHT22;22054;51.646;7.078;2022-11-30T10:17:38;8.00;99.90
35613;DHT22;22054;51.646;7.078;2022-11-30T10:26:15;8.10;99.90
35613;DHT22;22054;51.646;7.078;2022-11-30T10:28:56;8.10;99.90
35613;DHT22;22054;51.646;7.078;2022-11-30T10:31:44;8.10;99.90
35613;DHT22;22054;51.646;7.078;2022-11-30T10:37:04;8.10;99.90
35613;DHT22;22054;51.646;7.078;2022-11-30T10:42:48;8.20;99.90
35613;DHT22;22054;51.646;7.078;2022-11-30T10:45:20;8.20;99.90
35613;DHT22;22054;51.646;7.078;2022-11-30T10:50:51;8.20;99.90
35613;DHT22;22054;51.646;7.078;2022-11-30T10:53:17;8.30;99.90
35613;DHT22;22054;51.646;7.078;2022-11-30T10:56:04;8.50;99.90
35613;DHT22;22054;51.646;7.078;2022-11-30T11:01:09;8.20;99.90
35613;DHT22;22054;51.646;7.078;2022-11-30T11:03:36;8.30;99.90
35613;DHT22;22054;51.646;7.078;2022-11-30T11:08:36;8.40;99.90
35613;DHT22;22054;51.646;7.078;2022-11-30T11:11:02;8.30;99.90
35613;DHT22;22054;51.646;7.078;2022-11-30T11:13:40;8.40;99.90
35613;DHT22;22054;51.646;7.078;2022-11-30T11:16:10;8.30;99.90
35613;DHT22;22054;51.646;7.078;2022-11-30T11:18:54;8.30;99.90
35613;DHT22;22054;51.646;7.078;2022-11-30T11:21:25;8.20;99.90
35613;DHT22;22054;51.646;7.078;2022-11-30T11:23:56;8.30;99.90
35613;DHT22;22054;51.646;7.078;2022-11-30T11:26:26;8.20;99.90
35613;DHT22;22054;51.646;7.078;2022-11-30T11:28:56;8.30;99.90
35613;DHT22;22054;51.646;7.078;2022-11-30T11:31:36;8.30;99.90
35613;DHT22;22054;51.646;7.078;2022-11-30T11:34:05;8.30;99.90
35613;DHT22;22054;51.646;7.078;2022-11-30T11:37:10;8.40;99.90
35613;DHT22;22054;51.646;7.078;2022-11-30T11:42:27;8.30;99.90
35613;DHT22;22054;51.646;7.078;2022-11-30T11:44:57;8.50;99.90
35613;DHT22;22054;51.646;7.078;2022-11-30T11:48:03;8.30;99.90
35613;DHT22;22054;51.646;7.078;2022-11-30T11:50:35;8.40;99.90
35613;DHT22;22054;51.646;7.078;2022-11-30T11:53:18;8.30;99.90
35613;DHT22;22054;51.646;7.078;2022-11-30T11:58:54;8.30;99.90
35613;DHT22;22054;51.646;7.078;2022-11-30T12:01:39;8.40;99.90
35613;DHT22;22054;51.646;7.078;2022-11-30T12:04:31;8.40;99.90
35613;DHT22;22054;51.646;7.078;2022-11-30T12:07:13;8.30;99.90
35613;DHT22;22054;51.646;7.078;2022-11-30T12:10:14;8.30;99.90
35613;DHT22;22054;51.646;7.078;2022-11-30T12:12:44;8.20;99.90
35613;DHT22;22054;51.646;7.078;2022-11-30T12:15:10;8.20;99.90
35613;DHT22;22054;51.646;7.078;2022-11-30T12:20:57;8.30;99.90
35613;DHT22;22054;51.646;7.078;2022-11-30T12:26:24;8.40;99.90
35613;DHT22;22054;51.646;7.078;2022-11-30T12:29:12;8.20;99.90
35613;DHT22;22054;51.646;7.078;2022-11-30T12:32:14;8.20;99.90
35613;DHT22;22054;51.646;7.078;2022-11-30T12:53:23;8.50;99.90
35613;DHT22;22054;51.646;7.078;2022-11-30T12:59:27;8.50;99.90
35613;DHT22;22054;51.646;7.078;2022-11-30T13:04:19;8.50;99.90
35613;DHT22;22054;51.646;7.078;2022-11-30T13:06:58;8.50;99.90
35613;DHT22;22054;51.646;7.078;2022-11-30T13:09:42;8.50;99.90
35613;DHT22;22054;51.646;7.078;2022-11-30T13:12:29;8.30;99.90
35613;DHT22;22054;51.646;7.078;2022-11-30T13:15:03;8.30;99.90
35613;DHT22;22054;51.646;7.078;2022-11-30T13:17:53;8.30;99.90
35613;DHT22;22054;51.646;7.078;2022-11-30T13:20:39;8.30;99.90
35613;DHT22;22054;51.646;7.078;2022-11-30T13:26:28;8.30;99.90
35613;DHT22;22054;51.646;7.078;2022-11-30T13:31:58;8.20;99.90
35613;DHT22;22054;51.646;7.078;2022-11-30T13:34:30;8.20;99.90
35613;DHT22;22054;51.646;7.078;2022-11-30T13:37:17;8.10;99.90
35613;DHT22;22054;51.646;7.078;2022-11-30T13:39:54;8.20;99.90
35613;DHT22;22054;51.646;7.078;2022-11-30T13:42:41;8.20;99.90
35613;DHT22;22054;51.646;7.078;2022-11-30T13:47:58;8.30;99.90
35613;DHT22;22054;51.646;7.078;2022-11-30T13:50:38;8.20;99.90
35613;DHT22;22054;51.646;7.078;2022-11-30T13:53:07;8.20;99.90
35613;DHT22;22054;51.646;7.078;2022-11-30T13:55:57;8.30;99.90
35613;DHT22;22054;51.646;7.078;2022-11-30T13:58:27;8.10;99.90
35613;DHT22;22054;51.646;7.078;2022-11-30T14:04:20;8.00;99.90
35613;DHT22;22054;51.646;7.078;2022-11-30T14:06:54;8.00;99.90
35613;DHT22;22054;51.646;7.078;2022-11-30T14:20:46;7.90;99.90
35613;DHT22;22054;51.646;7.078;2022-11-30T14:26:26;7.80;99.90
35613;DHT22;22054;51.646;7.078;2022-11-30T14:29:02;7.80;99.90
35613;DHT22;22054;51.646;7.078;2022-11-30T14:31:40;7.90;99.90
35613;DHT22;22054;51.646;7.078;2022-11-30T14:34:24;7.70;99.90
35613;DHT22;22054;51.646;7.078;2022-11-30T14:36:57;7.80;99.90
35613;DHT22;22054;51.646;7.078;2022-11-30T14:39:34;7.90;99.90
35613;DHT22;22054;51.646;7.078;2022-11-30T14:42:03;7.90;99.90
35613;DHT22;22054;51.646;7.078;2022-11-30T14:44:39;7.90;99.90
35613;DHT22;22054;51.646;7.078;2022-11-30T14:47:13;7.90;99.90
35613;DHT22;22054;51.646;7.078;2022-11-30T14:49:46;7.90;99.90
35613;DHT22;22054;51.646;7.078;2022-11-30T14:52:14;7.80;99.90
35613;DHT22;22054;51.646;7.078;2022-11-30T14:55:24;7.80;99.90
35613;DHT22;22054;51.646;7.078;2022-11-30T15:00:43;7.80;99.90
35613;DHT22;22054;51.646;7.078;2022-11-30T15:03:20;7.70;99.90
35613;DHT22;22054;51.646;7.078;2022-11-30T15:06:00;7.70;99.90
35613;DHT22;22054;51.646;7.078;2022-11-30T15:08:37;7.70;99.90
35613;DHT22;22054;51.646;7.078;2022-11-30T15:11:12;7.70;99.90
35613;DHT22;22054;51.646;7.078;2022-11-30T15:13:47;7.60;99.90
35613;DHT22;22054;51.646;7.078;2022-11-30T15:18:51;7.70;99.90
35613;DHT22;22054;51.646;7.078;2022-11-30T15:21:20;7.70;99.90
35613;DHT22;22054;51.646;7.078;2022-11-30T15:23:55;7.60;99.90
35613;DHT22;22054;51.646;7.078;2022-11-30T15:29:15;7.60;99.90
35613;DHT22;22054;51.646;7.078;2022-11-30T15:31:50;7.60;99.90
35613;DHT22;22054;51.646;7.078;2022-11-30T15:34:19;7.70;99.90
35613;DHT22;22054;51.646;7.078;2022-11-30T15:37:07;7.60;99.90
35613;DHT22;22054;51.646;7.078;2022-11-30T15:39:32;7.50;99.90
35613;DHT22;22054;51.646;7.078;2022-11-30T15:42:02;7.50;99.90
35613;DHT22;22054;51.646;7.078;2022-11-30T15:46:59;7.40;99.90
35613;DHT22;22054;51.646;7.078;2022-11-30T15:49:31;7.50;99.90
35613;DHT22;22054;51.646;7.078;2022-11-30T15:55:01;7.50;99.90
35613;DHT22;22054;51.646;7.078;2022-11-30T15:58:03;7.50;99.90
35613;DHT22;22054;51.646;7.078;2022-11-30T16:08:17;7.40;99.90
35613;DHT22;22054;51.646;7.078;2022-11-30T16:10:43;7.30;99.90
35613;DHT22;22054;51.646;7.078;2022-11-30T16:13:13;7.50;99.90
35613;DHT22;22054;51.646;7.078;2022-11-30T16:15:44;7.30;99.90
35613;DHT22;22054;51.646;7.078;2022-11-30T16:18:50;7.30;99.90
35613;DHT22;22054;51.646;7.078;2022-11-30T16:21:19;7.40;99.90
35613;DHT22;22054;51.646;7.078;2022-11-30T16:23:46;7.30;99.90
35613;DHT22;22054;51.646;7.078;2022-11-30T16:26:14;7.30;99.90
35613;DHT22;22054;51.646;7.078;2022-11-30T16:28:41;7.30;99.90
35613;DHT22;22054;51.646;7.078;2022-11-30T16:31:13;7.20;99.90
35613;DHT22;22054;51.646;7.078;2022-11-30T16:33:41;7.20;99.90
35613;DHT22;22054;51.646;7.078;2022-11-30T16:36:11;7.20;99.90
35613;DHT22;22054;51.646;7.078;2022-11-30T16:38:39;7.30;99.90
35613;DHT22;22054;51.646;7.078;2022-11-30T16:43:50;7.20;99.90
35613;DHT22;22054;51.646;7.078;2022-11-30T16:46:27;7.20;99.90
35613;DHT22;22054;51.646;7.078;2022-11-30T16:48:54;7.10;99.90
35613;DHT22;22054;51.646;7.078;2022-11-30T16:51:28;7.10;99.90
35613;DHT22;22054;51.646;7.078;2022-11-30T16:53:56;7.10;99.90
35613;DHT22;22054;51.646;7.078;2022-11-30T16:56:25;7.10;99.90
35613;DHT22;22054;51.646;7.078;2022-11-30T16:58:51;7.00;99.90
35613;DHT22;22054;51.646;7.078;2022-11-30T17:01:37;7.10;99.90
35613;DHT22;22054;51.646;7.078;2022-11-30T17:04:16;7.10;99.90
35613;DHT22;22054;51.646;7.078;2022-11-30T17:06:43;7.10;99.90
35613;DHT22;22054;51.646;7.078;2022-11-30T17:09:13;7.10;99.90
35613;DHT22;22054;51.646;7.078;2022-11-30T17:11:40;7.00;99.90
35613;DHT22;22054;51.646;7.078;2022-11-30T17:14:09;7.00;99.90
35613;DHT22;22054;51.646;7.078;2022-11-30T17:16:37;7.00;99.90
35613;DHT22;22054;51.646;7.078;2022-11-30T17:19:03;7.00;99.90
35613;DHT22;22054;51.646;7.078;2022-11-30T17:21:34;7.10;99.90
35613;DHT22;22054;51.646;7.078;2022-11-30T17:24:01;7.00;99.90
35613;DHT22;22054;51.646;7.078;2022-11-30T17:26:27;7.00;99.90
35613;DHT22;22054;51.646;7.078;2022-11-30T17:28:53;7.00;99.90
35613;DHT22;22054;51.646;7.078;2022-11-30T17:31:24;7.00;99.90
35613;DHT22;22054;51.646;7.078;2022-11-30T17:33:50;7.10;99.90
35613;DHT22;22054;51.646;7.078;2022-11-30T17:36:16;7.10;99.90
35613;DHT22;22054;51.646;7.078;2022-11-30T17:38:43;6.90;99.90
35613;DHT22;22054;51.646;7.078;2022-11-30T17:41:14;7.00;99.90
35613;DHT22;22054;51.646;7.078;2022-11-30T17:43:41;7.00;99.90
35613;DHT22;22054;51.646;7.078;2022-11-30T17:46:08;7.00;99.90
35613;DHT22;22054;51.646;7.078;2022-11-30T17:48:36;7.00;99.90
35613;DHT22;22054;51.646;7.078;2022-11-30T17:51:03;7.00;99.90
35613;DHT22;22054;51.646;7.078;2022-11-30T17:53:29;7.00;99.90
35613;DHT22;22054;51.646;7.078;2022-11-30T17:56:03;7.20;99.90
35613;DHT22;22054;51.646;7.078;2022-11-30T17:58:30;6.90;99.90
35613;DHT22;22054;51.646;7.078;2022-11-30T18:00:56;7.00;99.90
35613;DHT22;22054;51.646;7.078;2022-11-30T18:03:22;7.00;99.90
35613;DHT22;22054;51.646;7.078;2022-11-30T18:05:48;7.00;99.90
35613;DHT22;22054;51.646;7.078;2022-11-30T18:08:15;7.00;99.90
35613;DHT22;22054;51.646;7.078;2022-11-30T18:10:41;7.00;99.90
35613;DHT22;22054;51.646;7.078;2022-11-30T18:15:44;7.10;99.90
35613;DHT22;22054;51.646;7.078;2022-11-30T18:18:10;7.00;99.90
35613;DHT22;22054;51.646;7.078;2022-11-30T18:20:36;7.00;99.90
35613;DHT22;22054;51.646;7.078;2022-11-30T18:23:02;6.90;99.90
35613;DHT22;22054;51.646;7.078;2022-11-30T18:25:28;6.90;99.90
35613;DHT22;22054;51.646;7.078;2022-11-30T18:27:56;6.90;99.90
35613;DHT22;22054;51.646;7.078;2022-11-30T18:30:21;6.90;99.90
35613;DHT22;22054;51.646;7.078;2022-11-30T18:32:51;6.80;99.90
35613;DHT22;22054;51.646;7.078;2022-11-30T18:35:20;6.70;99.90
35613;DHT22;22054;51.646;7.078;2022-11-30T18:37:46;6.70;99.90